Time;durP1;ratioP1;P1;durP2;ratioP2;P2;SDS_P1;SDS_P2;PMS_P1;PMS_P2;Temp;Humidity;BMP_temperature;BMP_pressure;BME280_temperature;BME280_humidity;BME280_pressure;Samples;Min_cycle;Max_cycle;Signal;HPM_P1;HPM_P2
2022/01/08 00:01:32;;;;;;;0.85;0.85;;;4.00;99.90;;;;;;5066382;28;20194;-83
2022/01/08 00:04:00;;;;;;;0.80;0.80;;;4.00;99.90;;;;;;5059576;28;20708;-82
2022/01/08 00:06:29;;;;;;;1.60;1.10;;;3.90;99.90;;;;;;5062018;28;20193;-83
2022/01/08 00:08:57;;;;;;;0.90;0.90;;;3.90;99.90;;;;;;5050377;28;20216;-83
2022/01/08 00:11:27;;;;;;;3.00;1.10;;;3.80;99.90;;;;;;5058827;28;20203;-83
2022/01/08 00:13:56;;;;;;;2.17;0.95;;;3.90;99.90;;;;;;5052527;28;20901;-81
2022/01/08 00:16:25;;;;;;;2.65;1.35;;;3.90;99.90;;;;;;5060000;28;20567;-82
2022/01/08 00:18:53;;;;;;;1.10;0.90;;;4.20;99.90;;;;;;5061821;28;20244;-82
2022/01/08 00:21:21;;;;;;;0.80;0.43;;;4.40;99.90;;;;;;5068771;28;20228;-83
2022/01/08 00:23:49;;;;;;;1.52;0.80;;;4.40;99.90;;;;;;5069454;28;20744;-84
2022/01/08 00:26:17;;;;;;;1.20;0.70;;;4.70;99.90;;;;;;5056124;28;20203;-83
2022/01/08 00:28:47;;;;;;;0.50;0.50;;;4.60;99.90;;;;;;5065742;28;20222;-80
2022/01/08 00:31:15;;;;;;;0.82;0.80;;;4.90;99.90;;;;;;5061385;28;20202;-83
2022/01/08 00:33:43;;;;;;;0.50;0.50;;;4.40;99.90;;;;;;5061743;28;20587;-82
2022/01/08 00:36:12;;;;;;;0.88;0.70;;;4.40;99.90;;;;;;5061862;28;20667;-82
2022/01/08 00:38:40;;;;;;;0.80;0.80;;;4.90;99.90;;;;;;5054531;28;20200;-82
2022/01/08 00:41:08;;;;;;;1.95;0.90;;;4.90;99.90;;;;;;5070622;28;20201;-83
2022/01/08 00:43:36;;;;;;;1.20;1.00;;;4.80;99.90;;;;;;5059912;28;20231;-83
2022/01/08 00:46:06;;;;;;;3.95;0.80;;;4.80;99.90;;;;;;5066750;28;20217;-82
2022/01/08 00:48:34;;;;;;;0.65;0.65;;;4.80;99.90;;;;;;5062734;28;20702;-82
2022/01/08 00:51:02;;;;;;;1.30;0.68;;;4.80;99.90;;;;;;5066127;28;20563;-80
2022/01/08 00:53:31;;;;;;;0.80;0.80;;;5.10;99.90;;;;;;5065922;28;20229;-83
2022/01/08 00:55:59;;;;;;;1.33;0.52;;;4.80;99.90;;;;;;5085192;28;20207;-83
2022/01/08 00:58:27;;;;;;;0.60;0.60;;;4.80;99.90;;;;;;5055586;28;20209;-84
2022/01/08 01:00:55;;;;;;;0.73;0.60;;;5.20;99.90;;;;;;5065612;28;20658;-82
2022/01/08 01:03:25;;;;;;;1.95;0.82;;;5.00;99.90;;;;;;5065093;28;20937;-82
2022/01/08 01:05:53;;;;;;;0.80;0.60;;;4.90;99.90;;;;;;5067027;28;20218;-82
2022/01/08 01:08:22;;;;;;;0.60;0.60;;;4.60;99.90;;;;;;5074160;28;20198;-83
2022/01/08 01:10:50;;;;;;;0.65;0.50;;;4.70;99.90;;;;;;5068979;28;20255;-82
2022/01/08 01:13:19;;;;;;;1.00;0.90;;;4.70;99.90;;;;;;5067059;28;20224;-82
2022/01/08 01:15:47;;;;;;;0.85;0.60;;;4.60;99.90;;;;;;5056596;28;20200;-81
2022/01/08 01:18:15;;;;;;;1.20;0.93;;;4.50;99.90;;;;;;5058393;28;20195;-81
2022/01/08 01:20:45;;;;;;;1.35;0.80;;;4.80;99.90;;;;;;5063429;28;20723;-83
2022/01/08 01:23:18;;;;;;;0.88;0.80;;;4.60;99.90;;;;;;5066150;28;20227;-84
2022/01/08 01:25:50;;;;;;;1.30;0.95;;;4.70;99.90;;;;;;5067874;28;20214;-83
2022/01/08 01:28:31;;;;;;;1.20;0.70;;;4.60;99.90;;;;;;5061792;28;20290;-84
2022/01/08 01:47:33;;;;;;;1.05;0.80;;;4.40;99.90;;;;;;5063783;28;20218;-83
2022/01/08 01:50:03;;;;;;;1.10;0.77;;;4.30;99.90;;;;;;5063013;28;20826;-83
2022/01/08 01:52:33;;;;;;;1.75;0.80;;;4.40;99.90;;;;;;5056015;28;20200;-82
2022/01/08 01:55:01;;;;;;;1.88;0.70;;;4.60;99.90;;;;;;5070696;28;20217;-82
2022/01/08 01:57:30;;;;;;;0.63;0.60;;;4.50;99.90;;;;;;5053149;28;20207;-82
2022/01/08 01:59:59;;;;;;;0.90;0.80;;;4.50;99.90;;;;;;5064381;28;20202;-83
2022/01/08 02:02:27;;;;;;;3.03;0.95;;;4.40;99.90;;;;;;5065632;28;20204;-82
2022/01/08 02:04:56;;;;;;;0.95;0.60;;;4.20;1.00;;;;;;5068993;28;20207;-81
2022/01/08 02:07:27;;;;;;;0.80;0.80;;;4.10;1.00;;;;;;5052127;28;20188;-82
2022/01/08 02:09:57;;;;;;;0.50;0.50;;;4.60;1.00;;;;;;5067809;28;20227;-81
2022/01/08 02:12:33;;;;;;;1.20;0.60;;;4.10;1.00;;;;;;5059789;28;21033;-81
2022/01/08 02:15:01;;;;;;;3.05;0.70;;;3.90;99.90;;;;;;5075969;28;20196;-82
2022/01/08 02:17:29;;;;;;;0.73;0.70;;;4.10;1.00;;;;;;5061865;28;20197;-82
2022/01/08 02:19:59;;;;;;;0.82;0.82;;;3.90;1.00;;;;;;5075720;28;20701;-82
2022/01/08 02:22:27;;;;;;;0.60;0.60;;;3.80;1.00;;;;;;5066076;28;20208;-83
2022/01/08 02:24:55;;;;;;;0.77;0.70;;;4.20;99.90;;;;;;5057227;28;20197;-82
2022/01/08 02:27:23;;;;;;;1.52;0.90;;;4.10;99.90;;;;;;5072101;28;20452;-84
2022/01/08 02:29:52;;;;;;;0.93;0.77;;;4.20;99.90;;;;;;5061702;28;20208;-83
2022/01/08 02:32:25;;;;;;;1.63;0.80;;;3.90;99.90;;;;;;5055890;28;20203;-83
2022/01/08 02:34:53;;;;;;;3.65;0.70;;;4.00;99.90;;;;;;5059209;28;20211;-83
2022/01/08 02:37:29;;;;;;;0.80;0.80;;;4.00;51.00;;;;;;5061325;28;20194;-83
2022/01/08 02:39:58;;;;;;;0.98;0.85;;;4.10;1.00;;;;;;5058091;28;20197;-83
2022/01/08 02:42:36;;;;;;;1.70;0.65;;;4.20;1.00;;;;;;5071052;28;20710;-80
2022/01/08 02:45:06;;;;;;;0.80;0.80;;;4.00;19.80;;;;;;5060307;28;20200;-80
2022/01/08 02:47:34;;;;;;;0.65;0.60;;;3.80;99.90;;;;;;5062482;28;20207;-81
2022/01/08 02:50:02;;;;;;;0.70;0.70;;;3.70;19.70;;;;;;5066625;28;20274;-80
2022/01/08 02:52:32;;;;;;;1.00;0.80;;;3.60;99.90;;;;;;5065180;28;20634;-81
2022/01/08 02:55:00;;;;;;;1.45;0.90;;;3.70;99.90;;;;;;5066507;28;20195;-79
2022/01/08 02:57:28;;;;;;;0.68;0.68;;;3.70;1.00;;;;;;5055730;28;20288;-81
2022/01/08 02:59:56;;;;;;;0.85;0.82;;;3.70;35.70;;;;;;5069496;28;20194;-81
2022/01/08 03:02:25;;;;;;;1.20;0.90;;;3.70;1.00;;;;;;5058386;28;20211;-81
2022/01/08 03:04:54;;;;;;;2.28;1.05;;;3.60;99.90;;;;;;5056192;28;20203;-81
2022/01/08 03:07:22;;;;;;;1.90;0.90;;;3.70;99.90;;;;;;5076511;28;20670;-83
2022/01/08 03:09:56;;;;;;;1.17;1.08;;;3.60;99.90;;;;;;5054793;28;20214;-83
2022/01/08 03:12:27;;;;;;;1.35;0.90;;;3.60;1.00;;;;;;5054444;28;20847;-83
2022/01/08 03:14:56;;;;;;;0.82;0.82;;;3.80;99.90;;;;;;5075176;28;20229;-82
2022/01/08 03:17:25;;;;;;;1.40;1.00;;;3.60;1.00;;;;;;5069710;28;20206;-83
2022/01/08 03:20:00;;;;;;;1.20;0.90;;;3.50;1.00;;;;;;5083047;28;20206;-81
2022/01/08 03:22:29;;;;;;;0.93;0.73;;;3.50;99.90;;;;;;5072353;28;20275;-80
2022/01/08 03:24:58;;;;;;;0.90;0.90;;;3.40;1.00;;;;;;5058598;28;20213;-81
2022/01/08 03:27:27;;;;;;;1.25;1.00;;;3.50;35.00;;;;;;5061580;28;20677;-80
2022/01/08 03:29:55;;;;;;;1.98;1.02;;;3.20;99.90;;;;;;5063386;28;20235;-80
2022/01/08 03:32:23;;;;;;;1.23;1.13;;;3.50;1.00;;;;;;5067177;28;20199;-81
2022/01/08 03:34:52;;;;;;;1.17;1.08;;;3.40;99.90;;;;;;5060489;28;20197;-80
2022/01/08 03:37:21;;;;;;;4.13;1.27;;;3.50;1.00;;;;;;5061428;28;20212;-80
2022/01/08 03:39:49;;;;;;;1.10;1.00;;;3.40;86.00;;;;;;5062452;28;20271;-80
2022/01/08 03:42:18;;;;;;;1.40;1.30;;;3.40;1.00;;;;;;5075378;28;20208;-80
2022/01/08 03:44:46;;;;;;;2.47;1.40;;;3.60;99.90;;;;;;5058717;28;20218;-81
2022/01/08 03:47:31;;;;;;;1.67;1.48;;;3.60;1.00;;;;;;5061138;28;20201;-81
2022/01/08 03:50:00;;;;;;;1.40;1.10;;;3.60;91.80;;;;;;5058220;28;20291;-80
2022/01/08 03:52:34;;;;;;;1.05;0.95;;;3.60;99.90;;;;;;5068526;28;20601;-81
2022/01/08 03:55:02;;;;;;;1.38;1.27;;;3.40;1.00;;;;;;5056889;28;20197;-81
2022/01/08 03:57:32;;;;;;;1.33;1.20;;;3.40;99.90;;;;;;5056129;28;20221;-79
2022/01/08 04:00:00;;;;;;;1.67;1.58;;;3.40;99.90;;;;;;5062342;28;20200;-82
2022/01/08 04:02:28;;;;;;;1.25;1.15;;;3.30;99.90;;;;;;5065654;28;20612;-81
2022/01/08 04:04:56;;;;;;;1.30;1.15;;;3.40;1.00;;;;;;5059463;28;20196;-80
2022/01/08 04:07:24;;;;;;;2.78;1.35;;;3.30;99.90;;;;;;5067096;28;20265;-82
2022/01/08 04:09:52;;;;;;;3.55;1.38;;;3.30;1.00;;;;;;5057265;28;20244;-81
2022/01/08 04:12:31;;;;;;;1.25;1.15;;;3.50;79.40;;;;;;5062026;28;20215;-81
2022/01/08 04:15:07;;;;;;;1.75;1.02;;;3.40;1.00;;;;;;5060233;28;20202;-81
2022/01/08 04:17:35;;;;;;;1.33;1.23;;;3.40;1.00;;;;;;5054286;28;20549;-81
2022/01/08 04:20:04;;;;;;;2.42;1.15;;;3.50;99.90;;;;;;5061190;28;20193;-81
2022/01/08 04:22:32;;;;;;;1.30;1.13;;;3.60;99.90;;;;;;5062989;28;20217;-82
2022/01/08 04:25:00;;;;;;;1.90;1.25;;;3.70;1.00;;;;;;5060115;28;20201;-82
2022/01/08 04:27:28;;;;;;;1.92;1.50;;;3.60;99.90;;;;;;5059307;28;20202;-82
2022/01/08 04:29:57;;;;;;;1.00;1.00;;;3.40;99.90;;;;;;5069402;28;20195;-81
2022/01/08 04:32:26;;;;;;;0.90;0.90;;;3.40;1.00;;;;;;5072379;28;20218;-82
2022/01/08 04:34:54;;;;;;;1.25;1.15;;;3.60;99.90;;;;;;5064858;28;20200;-82
2022/01/08 04:37:22;;;;;;;1.15;1.00;;;3.80;1.30;;;;;;5060275;28;20198;-82
2022/01/08 04:39:51;;;;;;;1.42;1.15;;;3.60;1.00;;;;;;5056327;28;20209;-83
2022/01/08 04:42:19;;;;;;;1.65;1.40;;;3.50;1.00;;;;;;5073685;28;20258;-81
2022/01/08 04:44:47;;;;;;;1.50;1.25;;;3.60;1.00;;;;;;5059995;28;20229;-82
2022/01/08 04:47:16;;;;;;;1.90;1.20;;;3.50;99.90;;;;;;5072441;28;20203;-82
2022/01/08 04:49:46;;;;;;;1.10;1.02;;;3.50;77.80;;;;;;5062529;28;20200;-82
2022/01/08 04:52:14;;;;;;;1.38;1.20;;;3.40;99.90;;;;;;5065641;28;20208;-82
2022/01/08 04:54:42;;;;;;;2.40;0.70;;;3.90;1.00;;;;;;5063053;28;20227;-82
2022/01/08 04:57:11;;;;;;;1.60;1.00;;;3.80;1.00;;;;;;5072008;28;20197;-80
2022/01/08 04:59:39;;;;;;;1.10;1.00;;;3.60;1.00;;;;;;5079380;28;20214;-81
2022/01/08 05:02:07;;;;;;;1.70;0.80;;;3.60;99.90;;;;;;5061059;28;20196;-81
2022/01/08 05:04:35;;;;;;;0.73;0.73;;;3.50;1.00;;;;;;5066652;28;20720;-81
2022/01/08 05:07:05;;;;;;;0.60;0.60;;;3.50;99.90;;;;;;5068427;28;20228;-82
2022/01/08 05:09:33;;;;;;;0.70;0.70;;;3.50;99.90;;;;;;5078675;28;20210;-80
2022/01/08 05:12:02;;;;;;;0.77;0.63;;;3.50;79.10;;;;;;5071680;28;20215;-82
2022/01/08 05:14:30;;;;;;;0.95;0.60;;;3.50;9.40;;;;;;5051876;28;20231;-82
2022/01/08 05:17:00;;;;;;;1.17;1.13;;;3.70;99.90;;;;;;5061173;28;20203;-82
2022/01/08 05:19:41;;;;;;;0.68;0.65;;;3.80;1.00;;;;;;5074512;28;20628;-81
2022/01/08 05:22:18;;;;;;;0.60;0.60;;;3.80;6.30;;;;;;5068360;28;20199;-81
2022/01/08 05:24:47;;;;;;;0.50;0.50;;;3.60;99.90;;;;;;5061888;28;20221;-82
2022/01/08 05:27:17;;;;;;;0.50;0.50;;;3.70;99.90;;;;;;5069283;28;20211;-81
2022/01/08 05:29:46;;;;;;;0.50;0.50;;;3.80;1.00;;;;;;5059668;28;20216;-81
2022/01/08 05:32:17;;;;;;;0.68;0.55;;;3.90;1.00;;;;;;5065299;28;20243;-81
2022/01/08 05:34:47;;;;;;;4.90;0.50;;;4.00;99.90;;;;;;5072852;28;20213;-83
2022/01/08 05:37:18;;;;;;;1.30;0.70;;;4.10;1.00;;;;;;5067975;28;20686;-82
2022/01/08 05:39:47;;;;;;;0.68;0.68;;;4.10;36.00;;;;;;5055732;28;20699;-82
2022/01/08 05:42:15;;;;;;;0.77;0.50;;;4.20;99.90;;;;;;5053639;28;20237;-81
2022/01/08 05:44:44;;;;;;;0.50;0.50;;;4.20;1.00;;;;;;5065756;28;20215;-80
2022/01/08 05:47:13;;;;;;;0.70;0.70;;;4.40;1.00;;;;;;5068400;28;20283;-83
2022/01/08 05:49:42;;;;;;;0.50;0.50;;;4.60;21.00;;;;;;5069078;28;20209;-83
2022/01/08 05:52:10;;;;;;;0.70;0.70;;;4.70;1.00;;;;;;5069341;28;20579;-82
2022/01/08 05:54:39;;;;;;;0.50;0.50;;;4.90;99.90;;;;;;5058444;28;20226;-80
2022/01/08 05:57:08;;;;;;;0.55;0.50;;;5.30;1.00;;;;;;5057870;28;20225;-81
2022/01/08 05:59:36;;;;;;;0.50;0.50;;;5.10;99.90;;;;;;5083848;28;20208;-80
2022/01/08 06:02:05;;;;;;;0.65;0.40;;;5.20;99.90;;;;;;5059812;28;20208;-81
2022/01/08 06:04:33;;;;;;;1.08;0.50;;;5.20;56.90;;;;;;5075752;28;20226;-80
2022/01/08 06:07:02;;;;;;;0.50;0.50;;;5.20;23.90;;;;;;5057700;28;20209;-81
2022/01/08 06:09:30;;;;;;;0.95;0.43;;;5.10;1.00;;;;;;5059687;28;20572;-82
2022/01/08 06:11:59;;;;;;;0.52;0.50;;;5.00;1.00;;;;;;5050513;28;20215;-82
2022/01/08 06:14:28;;;;;;;0.40;0.40;;;4.90;1.00;;;;;;5078471;28;20230;-82
2022/01/08 06:16:56;;;;;;;0.80;0.45;;;5.00;1.00;;;;;;5071479;28;20249;-82
2022/01/08 06:19:24;;;;;;;0.52;0.43;;;4.70;1.00;;;;;;5069029;28;20195;-83
2022/01/08 06:21:52;;;;;;;1.20;0.50;;;4.70;1.00;;;;;;5060598;28;20200;-82
2022/01/08 06:24:20;;;;;;;0.50;0.50;;;4.70;99.90;;;;;;5067774;28;21605;-82
2022/01/08 06:26:49;;;;;;;0.68;0.55;;;4.70;99.90;;;;;;5075007;28;20212;-83
2022/01/08 06:29:18;;;;;;;0.50;0.50;;;4.80;99.90;;;;;;5079999;28;20193;-83
2022/01/08 06:31:46;;;;;;;0.50;0.50;;;4.80;99.90;;;;;;5064182;28;20451;-82
2022/01/08 06:34:14;;;;;;;0.50;0.50;;;5.10;99.90;;;;;;5067713;28;20231;-82
2022/01/08 06:36:43;;;;;;;0.50;0.50;;;4.80;99.90;;;;;;5075941;28;20206;-81
2022/01/08 06:39:11;;;;;;;0.50;0.50;;;4.90;99.90;;;;;;5055117;28;20203;-82
2022/01/08 06:41:39;;;;;;;0.60;0.60;;;4.80;99.90;;;;;;5068009;28;20197;-82
2022/01/08 06:44:07;;;;;;;0.65;0.50;;;4.50;99.90;;;;;;5067795;28;20213;-81
2022/01/08 06:46:37;;;;;;;0.50;0.50;;;4.60;99.90;;;;;;5061725;28;20324;-81
2022/01/08 06:49:05;;;;;;;0.88;0.52;;;4.60;99.90;;;;;;5065061;28;20673;-79
2022/01/08 06:51:33;;;;;;;0.50;0.50;;;4.70;99.90;;;;;;5059873;28;20208;-81
2022/01/08 06:54:02;;;;;;;2.40;0.45;;;4.70;99.90;;;;;;5071859;28;20211;-80
2022/01/08 06:56:30;;;;;;;0.85;0.60;;;4.90;99.90;;;;;;5059271;28;20708;-82
2022/01/08 06:58:58;;;;;;;0.50;0.50;;;4.70;20.20;;;;;;5056984;28;20194;-81
2022/01/08 07:01:26;;;;;;;1.60;0.60;;;4.60;1.00;;;;;;5060968;28;20192;-84
2022/01/08 07:03:56;;;;;;;0.70;0.70;;;4.50;1.00;;;;;;5069005;28;20692;-82
2022/01/08 07:06:25;;;;;;;2.15;0.68;;;4.60;44.70;;;;;;5069049;28;20211;-82
2022/01/08 07:08:54;;;;;;;0.60;0.60;;;4.70;1.00;;;;;;5068435;28;20204;-81
2022/01/08 07:11:22;;;;;;;1.02;0.60;;;4.80;1.00;;;;;;5063785;28;20197;-80
2022/01/08 07:13:50;;;;;;;1.30;0.80;;;4.90;1.00;;;;;;5061055;28;20582;-80
2022/01/08 07:16:18;;;;;;;1.83;0.68;;;4.90;23.00;;;;;;5055425;28;20204;-81
2022/01/08 07:18:46;;;;;;;0.75;0.70;;;5.00;1.00;;;;;;5055415;28;20282;-81
2022/01/08 07:21:16;;;;;;;0.70;0.70;;;5.00;1.00;;;;;;5059423;28;20204;-82
2022/01/08 07:23:44;;;;;;;1.00;0.85;;;4.90;1.00;;;;;;5059500;28;20209;-82
2022/01/08 07:26:12;;;;;;;0.60;0.60;;;4.90;1.00;;;;;;5059139;28;20196;-83
2022/01/08 07:28:40;;;;;;;3.60;0.82;;;5.00;1.00;;;;;;5057779;28;20519;-81
2022/01/08 07:31:09;;;;;;;0.80;0.80;;;5.10;1.00;;;;;;5067079;28;20219;-83
2022/01/08 07:33:37;;;;;;;2.13;0.85;;;5.20;1.00;;;;;;5054932;28;20243;-82
2022/01/08 07:36:05;;;;;;;0.85;0.85;;;5.10;1.00;;;;;;5063292;28;20203;-82
2022/01/08 07:38:35;;;;;;;0.63;0.63;;;5.20;1.00;;;;;;5056677;28;20199;-81
2022/01/08 07:41:03;;;;;;;0.88;0.88;;;5.20;1.00;;;;;;5069590;28;20203;-80
2022/01/08 07:43:31;;;;;;;1.42;1.00;;;5.30;1.00;;;;;;5053441;28;20208;-82
2022/01/08 07:45:59;;;;;;;0.80;0.80;;;5.30;1.00;;;;;;5062955;28;20189;-81
2022/01/08 07:48:27;;;;;;;1.88;0.85;;;5.40;1.00;;;;;;5055047;28;20223;-82
2022/01/08 07:50:56;;;;;;;2.35;0.82;;;5.30;1.00;;;;;;5054185;28;20204;-81
2022/01/08 07:53:24;;;;;;;0.70;0.70;;;5.30;1.00;;;;;;5052899;28;20737;-81
2022/01/08 07:55:54;;;;;;;0.70;0.70;;;5.20;1.00;;;;;;5054918;28;20223;-82
2022/01/08 07:58:22;;;;;;;1.25;0.60;;;5.30;1.00;;;;;;5055652;28;20214;-81
2022/01/08 08:00:51;;;;;;;1.95;0.90;;;5.40;1.00;;;;;;5055565;28;20218;-82
2022/01/08 08:03:20;;;;;;;1.02;1.00;;;5.40;1.00;;;;;;5052155;28;20720;-81
2022/01/08 08:05:48;;;;;;;0.90;0.90;;;5.30;1.00;;;;;;5051348;28;20205;-80
2022/01/08 08:08:17;;;;;;;1.00;0.90;;;5.40;99.90;;;;;;5055581;28;20772;-81
2022/01/08 08:10:47;;;;;;;0.90;0.90;;;5.30;99.90;;;;;;5059705;28;20196;-82
2022/01/08 08:13:17;;;;;;;1.10;1.00;;;5.30;99.90;;;;;;5058757;28;20225;-82
2022/01/08 08:15:46;;;;;;;0.75;0.75;;;5.40;99.90;;;;;;5052988;28;20451;-80
2022/01/08 08:18:15;;;;;;;1.20;1.10;;;5.70;99.90;;;;;;5058784;28;20193;-81
2022/01/08 08:20:43;;;;;;;2.13;0.90;;;5.40;99.90;;;;;;5051105;28;20464;-81
2022/01/08 08:23:11;;;;;;;2.67;1.00;;;5.50;99.90;;;;;;5072261;28;21210;-84
2022/01/08 08:25:40;;;;;;;1.25;1.00;;;5.50;99.90;;;;;;5079308;28;20459;-81
2022/01/08 08:28:08;;;;;;;1.63;1.20;;;5.50;99.90;;;;;;5061845;28;20217;-82
2022/01/08 08:30:38;;;;;;;1.50;0.90;;;5.50;99.90;;;;;;5069122;28;20444;-83
2022/01/08 08:33:07;;;;;;;0.70;0.70;;;5.50;1.00;;;;;;5056080;28;20273;-82
2022/01/08 08:35:35;;;;;;;0.60;0.60;;;5.40;1.00;;;;;;5062050;28;20462;-82
2022/01/08 08:38:03;;;;;;;1.17;0.53;;;5.40;1.00;;;;;;5056143;28;20470;-82
2022/01/08 08:40:32;;;;;;;0.75;0.75;;;5.50;1.00;;;;;;5051319;28;20455;-83
2022/01/08 08:43:00;;;;;;;3.15;0.80;;;5.50;1.00;;;;;;5058701;28;20484;-81
2022/01/08 08:45:28;;;;;;;0.98;0.65;;;5.60;1.00;;;;;;5067088;28;20674;-82
2022/01/08 08:47:57;;;;;;;1.10;1.00;;;5.60;1.00;;;;;;5051621;28;20446;-83
2022/01/08 08:50:26;;;;;;;1.20;0.90;;;5.50;1.00;;;;;;5058895;28;20206;-83
2022/01/08 08:52:55;;;;;;;1.30;1.02;;;5.50;1.00;;;;;;5056358;28;20450;-84
2022/01/08 08:55:23;;;;;;;5.05;1.65;;;5.50;1.00;;;;;;5073173;28;20199;-80
2022/01/08 08:57:51;;;;;;;0.77;0.60;;;5.50;1.00;;;;;;5059318;28;20208;-81
2022/01/08 09:00:19;;;;;;;2.00;0.80;;;5.60;1.00;;;;;;5054278;28;20444;-79
2022/01/08 09:02:47;;;;;;;0.70;0.67;;;5.60;1.00;;;;;;5054507;28;20197;-81
2022/01/08 09:05:17;;;;;;;0.70;0.70;;;5.70;1.00;;;;;;5054190;28;20466;-81
2022/01/08 09:07:46;;;;;;;0.87;0.87;;;5.70;1.00;;;;;;5063368;28;20782;-81
2022/01/08 09:10:14;;;;;;;1.20;1.10;;;5.70;99.90;;;;;;5073619;28;20538;-82
2022/01/08 09:12:43;;;;;;;2.20;1.00;;;5.70;99.90;;;;;;5060276;28;20193;-81
2022/01/08 09:15:14;;;;;;;1.07;0.80;;;5.80;99.90;;;;;;5074906;28;20447;-78
2022/01/08 09:17:42;;;;;;;1.15;0.80;;;5.80;99.90;;;;;;5057103;28;20906;-79
2022/01/08 09:20:11;;;;;;;1.42;1.00;;;5.90;99.90;;;;;;5055173;28;20205;-77
2022/01/08 09:22:41;;;;;;;2.80;0.90;;;5.80;99.90;;;;;;5059045;28;20215;-77
2022/01/08 09:25:10;;;;;;;2.28;1.20;;;5.80;99.90;;;;;;5057662;28;20939;-82
2022/01/08 09:27:39;;;;;;;1.13;1.02;;;5.80;99.90;;;;;;5063184;28;20212;-79
2022/01/08 09:30:08;;;;;;;2.15;0.77;;;5.90;99.90;;;;;;5057640;28;20679;-80
2022/01/08 09:32:37;;;;;;;1.42;0.75;;;5.80;99.90;;;;;;5055384;28;20213;-80
2022/01/08 09:35:06;;;;;;;1.08;0.85;;;5.70;99.90;;;;;;5063606;28;20216;-78
2022/01/08 09:37:37;;;;;;;1.40;0.82;;;5.70;99.90;;;;;;5059826;28;20196;-80
2022/01/08 09:40:10;;;;;;;1.00;0.90;;;5.80;99.90;;;;;;5058968;28;20201;-79
2022/01/08 09:42:40;;;;;;;1.00;1.00;;;5.80;99.90;;;;;;5070073;28;20229;-80
2022/01/08 09:45:09;;;;;;;1.10;1.00;;;5.80;99.90;;;;;;5064749;28;20685;-79
2022/01/08 09:47:38;;;;;;;0.60;0.60;;;5.90;99.90;;;;;;5067043;28;20203;-79
2022/01/08 09:50:07;;;;;;;1.85;0.75;;;5.90;99.90;;;;;;5051925;28;20272;-79
2022/01/08 09:52:36;;;;;;;1.60;0.90;;;6.00;99.90;;;;;;5052238;28;20439;-79
2022/01/08 09:55:07;;;;;;;0.82;0.70;;;6.00;99.90;;;;;;5068267;28;20599;-79
2022/01/08 09:57:36;;;;;;;1.40;0.70;;;6.10;99.90;;;;;;5055504;28;20291;-80
2022/01/08 10:00:14;;;;;;;1.00;0.90;;;6.30;99.90;;;;;;5058719;28;20487;-81
2022/01/08 10:02:44;;;;;;;1.58;1.15;;;6.10;99.90;;;;;;5053277;28;20193;-80
2022/01/08 10:05:15;;;;;;;1.75;0.95;;;6.10;99.90;;;;;;5056990;28;20941;-80
2022/01/08 10:07:43;;;;;;;1.23;0.87;;;6.10;99.90;;;;;;5058017;28;20208;-80
2022/01/08 10:10:16;;;;;;;0.93;0.80;;;6.10;99.90;;;;;;5058838;28;20448;-79
2022/01/08 10:12:49;;;;;;;1.30;0.90;;;6.10;99.90;;;;;;5056691;28;20201;-80
2022/01/08 10:18:11;;;;;;;0.60;0.60;;;5.70;99.90;;;;;;5059859;28;20212;-81
2022/01/08 10:20:43;;;;;;;1.63;0.75;;;5.70;99.90;;;;;;5054233;28;20198;-81
2022/01/08 10:23:15;;;;;;;0.90;0.90;;;5.60;99.90;;;;;;5052726;28;20592;-79
2022/01/08 10:25:57;;;;;;;2.03;1.10;;;5.70;99.90;;;;;;5055356;28;20189;-79
2022/01/08 10:28:40;;;;;;;0.80;0.80;;;5.70;99.90;;;;;;5058773;28;20216;-79
2022/01/08 10:31:11;;;;;;;1.73;0.70;;;5.60;99.90;;;;;;5053955;28;20258;-79
2022/01/08 10:33:40;;;;;;;0.70;0.70;;;5.40;99.90;;;;;;5064232;28;20214;-80
2022/01/08 10:36:09;;;;;;;2.08;0.88;;;5.50;99.90;;;;;;5052833;28;20194;-80
2022/01/08 10:38:37;;;;;;;0.70;0.70;;;5.90;99.90;;;;;;5051414;28;20254;-80
2022/01/08 10:41:13;;;;;;;0.82;0.80;;;5.70;99.90;;;;;;5061719;28;20193;-78
2022/01/08 10:43:42;;;;;;;1.45;0.70;;;5.40;99.90;;;;;;5055936;28;20227;-80
2022/01/08 10:46:13;;;;;;;1.60;0.80;;;5.50;99.90;;;;;;5059702;28;20281;-80
2022/01/08 10:48:45;;;;;;;2.25;0.90;;;5.50;99.90;;;;;;5050969;28;20897;-80
2022/01/08 10:51:17;;;;;;;1.20;1.10;;;5.40;99.90;;;;;;5060019;28;20204;-80
2022/01/08 10:54:09;;;;;;;1.20;0.82;;;5.50;99.90;;;;;;5075489;28;20221;-78
2022/01/08 10:56:40;;;;;;;0.90;0.90;;;5.40;99.90;;;;;;5048321;28;20251;-81
2022/01/08 10:59:15;;;;;;;1.20;0.88;;;5.50;99.90;;;;;;5064294;28;20208;-80
2022/01/08 11:01:54;;;;;;;1.45;0.60;;;5.70;99.90;;;;;;5055656;28;20201;-80
2022/01/08 11:04:40;;;;;;;0.73;0.73;;;6.00;99.90;;;;;;5079300;28;20219;-81
2022/01/08 11:07:11;;;;;;;1.80;0.67;;;6.30;99.90;;;;;;5060290;28;20201;-80
2022/01/08 11:09:41;;;;;;;1.73;0.80;;;6.50;99.90;;;;;;5067045;28;20490;-79
2022/01/08 11:12:13;;;;;;;1.03;0.80;;;6.50;99.90;;;;;;5062703;28;20461;-81
2022/01/08 11:17:32;;;;;;;1.67;0.70;;;6.60;99.90;;;;;;5082139;28;20469;-79
2022/01/08 11:20:02;;;;;;;2.83;1.13;;;6.30;99.90;;;;;;5062690;28;20201;-81
2022/01/08 11:22:32;;;;;;;1.73;0.90;;;6.00;99.90;;;;;;5066276;28;20677;-80
2022/01/08 11:25:04;;;;;;;0.87;0.83;;;6.10;99.90;;;;;;5074961;28;20610;-82
2022/01/08 11:27:46;;;;;;;1.73;0.80;;;6.10;99.90;;;;;;5058929;28;20460;-79
2022/01/08 11:30:19;;;;;;;2.35;0.60;;;6.20;99.90;;;;;;5058504;28;20460;-80
2022/01/08 11:32:48;;;;;;;1.00;0.80;;;6.00;99.90;;;;;;5063477;28;20288;-79
2022/01/08 11:35:35;;;;;;;1.52;0.70;;;6.00;99.90;;;;;;5057205;28;22184;-80
2022/01/08 11:38:07;;;;;;;1.45;0.90;;;6.00;99.90;;;;;;5081635;28;20879;-80
2022/01/08 11:40:36;;;;;;;2.08;1.13;;;6.00;99.90;;;;;;5053984;28;20197;-77
2022/01/08 11:43:08;;;;;;;0.55;0.50;;;5.90;99.90;;;;;;5062779;28;20224;-80
2022/01/08 11:45:39;;;;;;;0.90;0.70;;;5.60;99.90;;;;;;5067837;28;20975;-80
2022/01/08 11:48:10;;;;;;;1.45;0.80;;;5.40;99.90;;;;;;5070359;28;20542;-80
2022/01/08 11:50:39;;;;;;;1.23;0.65;;;5.20;99.90;;;;;;5053914;28;20212;-80
2022/01/08 11:53:15;;;;;;;1.20;0.70;;;5.20;99.90;;;;;;5057845;28;20234;-80
2022/01/08 11:55:46;;;;;;;1.50;0.88;;;5.30;99.90;;;;;;5058412;28;20235;-80
2022/01/08 11:58:17;;;;;;;3.53;0.75;;;5.50;99.90;;;;;;5059367;28;20678;-80
2022/01/08 12:00:57;;;;;;;1.15;0.88;;;5.50;99.90;;;;;;5055688;28;20576;-82
2022/01/08 12:03:39;;;;;;;0.60;0.60;;;5.70;99.90;;;;;;5064247;28;20226;-80
2022/01/08 12:06:36;;;;;;;1.67;0.70;;;5.60;99.90;;;;;;5055709;28;20188;-80
2022/01/08 12:09:22;;;;;;;1.80;1.00;;;5.50;99.90;;;;;;5069059;28;20210;-80
2022/01/08 12:12:03;;;;;;;1.67;1.10;;;5.40;99.90;;;;;;5054259;28;20214;-82
2022/01/08 12:14:46;;;;;;;3.22;0.77;;;5.30;99.90;;;;;;5055923;28;20238;-81
2022/01/08 12:17:17;;;;;;;0.90;0.90;;;5.30;99.90;;;;;;5058764;28;20201;-80
2022/01/08 12:19:47;;;;;;;1.95;1.15;;;5.30;99.90;;;;;;5057972;28;20200;-80
2022/01/08 12:22:32;;;;;;;1.13;1.05;;;5.20;99.90;;;;;;5063908;28;20205;-79
2022/01/08 12:25:03;;;;;;;1.23;0.90;;;5.20;99.90;;;;;;5062338;28;20201;-80
2022/01/08 12:27:44;;;;;;;1.02;0.93;;;5.10;99.90;;;;;;5065455;28;20202;-80
2022/01/08 12:30:37;;;;;;;0.82;0.77;;;4.90;99.90;;;;;;5062597;28;20215;-80
2022/01/08 12:33:17;;;;;;;1.27;0.80;;;4.90;99.90;;;;;;5063606;28;20223;-81
2022/01/08 12:35:45;;;;;;;1.10;0.90;;;4.90;99.90;;;;;;5053185;28;20207;-81
2022/01/08 12:38:26;;;;;;;1.67;1.08;;;5.20;99.90;;;;;;5051568;28;20211;-81
2022/01/08 12:40:55;;;;;;;2.43;1.00;;;5.40;99.90;;;;;;5061206;28;20451;-80
2022/01/08 12:43:32;;;;;;;1.27;0.90;;;5.80;99.90;;;;;;5067190;28;20482;-80
2022/01/08 12:46:18;;;;;;;0.90;0.87;;;5.60;99.90;;;;;;5062123;28;20463;-80
2022/01/08 12:49:13;;;;;;;2.07;0.83;;;5.80;99.90;;;;;;5055588;28;20447;-80
2022/01/08 12:51:43;;;;;;;1.57;1.10;;;5.70;99.90;;;;;;5056388;28;20796;-82
2022/01/08 12:54:13;;;;;;;1.27;0.80;;;5.90;99.90;;;;;;5073304;28;20474;-81
2022/01/08 12:56:46;;;;;;;1.55;0.65;;;5.50;99.90;;;;;;5058615;28;20244;-81
2022/01/08 12:59:15;;;;;;;0.83;0.70;;;5.60;99.90;;;;;;5066093;28;20216;-80
2022/01/08 13:01:48;;;;;;;1.38;0.70;;;5.60;99.90;;;;;;5060183;28;20509;-80
2022/01/08 13:04:21;;;;;;;0.87;0.80;;;5.60;99.90;;;;;;5065379;28;20238;-80
2022/01/08 13:06:50;;;;;;;0.80;0.70;;;5.50;99.90;;;;;;5057973;28;20513;-80
2022/01/08 13:09:18;;;;;;;0.98;0.80;;;5.60;99.90;;;;;;5058844;28;20282;-83
2022/01/08 13:11:47;;;;;;;1.35;0.88;;;5.70;99.90;;;;;;5058401;28;20228;-83
2022/01/08 13:14:17;;;;;;;0.80;0.70;;;5.40;99.90;;;;;;5072240;28;20297;-80
2022/01/08 13:16:48;;;;;;;1.60;1.10;;;5.20;99.90;;;;;;5072528;28;20214;-81
2022/01/08 13:19:18;;;;;;;1.55;0.80;;;5.30;99.90;;;;;;5064877;28;20788;-81
2022/01/08 13:21:48;;;;;;;0.77;0.70;;;5.60;99.90;;;;;;5067347;28;20223;-81
2022/01/08 13:24:18;;;;;;;1.27;0.60;;;5.60;99.90;;;;;;5069190;28;20224;-82
2022/01/08 13:26:51;;;;;;;1.75;0.68;;;6.00;99.90;;;;;;5074125;28;20309;-82
2022/01/08 13:29:24;;;;;;;0.80;0.70;;;5.70;99.90;;;;;;5064590;28;20209;-83
2022/01/08 13:31:56;;;;;;;1.10;0.70;;;5.40;99.90;;;;;;5072153;28;20478;-81
2022/01/08 13:34:26;;;;;;;1.70;0.80;;;5.30;99.90;;;;;;5068457;28;20568;-82
2022/01/08 13:37:03;;;;;;;0.82;0.82;;;5.40;99.90;;;;;;5068165;28;20739;-83
2022/01/08 13:39:38;;;;;;;0.97;0.97;;;5.50;99.90;;;;;;5071260;28;20933;-83